Time;durP1;ratioP1;P1;durP2;ratioP2;P2;SDS_P1;SDS_P2;PMS_P1;PMS_P2;Temp;Humidity;BMP_temperature;BMP_pressure;BME280_temperature;BME280_humidity;BME280_pressure;Samples;Min_cycle;Max_cycle;Signal;HPM_P1;HPM_P2
2022/06/09 00:00:43;;;;;;;12.27;3.53;;;;;;;13.38;82.02;98933.56;5012122;28;20649;-70
2022/06/09 00:03:15;;;;;;;13.13;2.63;;;;;;;13.39;82.17;98931.75;5011592;28;20026;-70
2022/06/09 00:05:40;;;;;;;7.68;2.83;;;;;;;13.36;82.29;98938.13;5011797;28;20096;-70
2022/06/09 00:08:06;;;;;;;11.30;4.28;;;;;;;13.36;82.75;98939.94;5011383;28;20402;-70
2022/06/09 00:10:37;;;;;;;7.47;3.13;;;;;;;13.34;82.51;98944.50;4994393;28;20375;-71
2022/06/09 00:13:03;;;;;;;15.50;4.72;;;;;;;13.31;82.54;98940.28;5012583;28;20500;-71
2022/06/09 00:15:29;;;;;;;10.45;3.10;;;;;;;13.31;81.89;98948.22;4994587;28;20121;-71
2022/06/09 00:17:54;;;;;;;9.57;3.55;;;;;;;13.31;82.04;98950.84;5011338;28;20066;-71
2022/06/09 00:20:20;;;;;;;13.82;4.47;;;;;;;13.28;82.23;98953.75;5011524;28;20117;-70
2022/06/09 00:22:45;;;;;;;11.45;2.90;;;;;;;13.27;82.48;98947.59;5012365;28;20449;-71
2022/06/09 00:25:11;;;;;;;10.82;3.70;;;;;;;13.23;82.39;98945.25;5014974;28;20575;-71
2022/06/09 00:27:37;;;;;;;14.15;3.78;;;;;;;13.19;82.11;98946.44;5016820;28;20400;-71
2022/06/09 00:30:06;;;;;;;8.05;3.40;;;;;;;13.20;83.17;98948.97;5017030;28;20065;-71
2022/06/09 00:32:32;;;;;;;8.30;2.78;;;;;;;13.22;82.71;98947.06;5013002;28;20409;-71
2022/06/09 00:34:57;;;;;;;11.45;4.15;;;;;;;13.26;82.84;98952.97;5012180;28;20097;-71
2022/06/09 00:37:23;;;;;;;11.00;3.15;;;;;;;13.27;82.92;98952.06;5011073;28;20049;-72
2022/06/09 00:39:48;;;;;;;13.73;4.65;;;;;;;13.29;82.77;98952.78;5011654;28;20481;-73
2022/06/09 00:42:13;;;;;;;10.75;4.43;;;;;;;13.32;82.39;98961.34;5011637;28;20038;-72
2022/06/09 00:44:39;;;;;;;12.40;3.92;;;;;;;13.33;82.70;98956.88;5011355;28;20046;-72
2022/06/09 00:47:29;;;;;;;15.00;4.20;;;;;;;13.37;82.56;98960.19;5009858;28;20044;-72
2022/06/09 00:50:01;;;;;;;8.18;3.30;;;;;;;13.39;82.37;98961.75;5011063;28;20042;-72
2022/06/09 00:52:31;;;;;;;9.40;3.58;;;;;;;13.41;82.01;98964.25;5010787;28;20750;-72
2022/06/09 00:55:01;;;;;;;5.45;2.78;;;;;;;13.44;82.61;98964.91;5010358;28;20034;-72
2022/06/09 00:57:37;;;;;;;8.63;3.25;;;;;;;13.42;81.52;98964.16;5003497;28;20521;-72
2022/06/09 01:00:10;;;;;;;9.90;3.63;;;;;;;13.41;82.08;98961.63;4991844;28;20110;-72
2022/06/09 01:02:37;;;;;;;7.55;3.13;;;;;;;13.38;82.05;98965.34;4984931;28;20034;-74
2022/06/09 01:05:05;;;;;;;12.23;3.63;;;;;;;13.38;82.76;98959.19;4991739;28;20034;-72
2022/06/09 01:07:36;;;;;;;7.85;3.15;;;;;;;13.37;82.04;98970.75;4993959;28;20472;-72
2022/06/09 01:10:03;;;;;;;8.38;3.47;;;;;;;13.37;82.28;98971.59;5010667;28;20069;-72
2022/06/09 01:12:35;;;;;;;9.98;3.47;;;;;;;13.40;82.12;98974.00;5010603;28;20061;-72
2022/06/09 01:15:11;;;;;;;13.07;5.25;;;;;;;13.41;82.84;98980.16;5010612;28;20454;-72
2022/06/09 01:17:57;;;;;;;14.10;3.22;;;;;;;13.43;82.59;98980.88;5009806;28;20030;-72
2022/06/09 01:20:26;;;;;;;9.65;3.88;;;;;;;13.41;82.69;98977.50;5010567;28;20038;-72
2022/06/09 01:23:28;;;;;;;14.43;4.50;;;;;;;13.41;82.65;98986.28;5010464;28;20053;-72
2022/06/09 01:26:38;;;;;;;10.73;3.35;;;;;;;13.42;82.66;99000.38;5009995;28;20070;-73
2022/06/09 01:29:16;;;;;;;12.15;4.03;;;;;;;13.38;82.93;98999.75;4981818;28;20485;-72
2022/06/09 01:31:59;;;;;;;11.23;3.80;;;;;;;13.39;83.01;98996.16;5008055;28;20042;-72
2022/06/09 01:34:30;;;;;;;21.48;5.55;;;;;;;13.41;82.67;98994.22;4990572;28;20141;-72
2022/06/09 01:37:03;;;;;;;13.73;4.00;;;;;;;13.44;82.55;98996.66;5000224;28;20565;-72
2022/06/09 01:39:43;;;;;;;14.27;4.47;;;;;;;13.46;82.93;99000.06;5010211;28;20064;-73
2022/06/09 01:42:35;;;;;;;18.33;3.85;;;;;;;13.49;82.91;99005.13;5010468;28;20055;-73
2022/06/09 01:45:20;;;;;;;13.40;4.65;;;;;;;13.49;83.81;99015.72;5009938;28;20048;-72
2022/06/09 01:47:51;;;;;;;15.30;4.47;;;;;;;13.41;84.55;99011.91;4992125;28;20428;-71
2022/06/09 01:50:32;;;;;;;19.52;6.18;;;;;;;13.31;85.28;99009.97;5009923;28;20042;-70
2022/06/09 01:53:01;;;;;;;14.30;3.80;;;;;;;13.27;85.92;99015.59;5009876;28;20497;-71
2022/06/09 01:55:29;;;;;;;13.88;5.72;;;;;;;13.26;85.96;99014.69;4991976;28;20497;-71
2022/06/09 01:57:58;;;;;;;9.55;5.65;;;;;;;13.29;86.77;99018.94;5008090;28;20057;-72
2022/06/09 02:00:25;;;;;;;16.60;5.95;;;;;;;13.27;86.01;99018.25;4991966;28;20034;-71
2022/06/09 02:02:57;;;;;;;16.85;4.95;;;;;;;13.29;86.22;99024.25;5009833;28;20034;-72
2022/06/09 02:05:26;;;;;;;13.80;6.10;;;;;;;13.23;86.74;99022.03;4992047;28;20085;-71
2022/06/09 02:07:54;;;;;;;16.00;4.88;;;;;;;13.20;86.40;99024.91;5008992;28;20460;-72
2022/06/09 02:10:29;;;;;;;12.38;4.53;;;;;;;13.18;86.96;99022.34;4991992;28;20107;-72
2022/06/09 02:12:58;;;;;;;10.00;4.82;;;;;;;13.16;87.26;99023.41;5009804;28;20041;-72
2022/06/09 02:15:31;;;;;;;15.95;4.43;;;;;;;13.17;87.43;99030.38;5009863;28;20034;-72
2022/06/09 02:17:56;;;;;;;16.02;6.00;;;;;;;13.17;87.58;99033.03;5008938;28;20030;-72
2022/06/09 02:20:23;;;;;;;10.05;4.65;;;;;;;13.20;88.35;99041.63;5009810;28;20041;-72
2022/06/09 02:22:49;;;;;;;16.27;5.15;;;;;;;13.20;87.52;99040.78;5009579;28;20033;-71
2022/06/09 02:25:15;;;;;;;8.25;4.60;;;;;;;13.26;87.95;99042.97;5009496;28;20034;-72
2022/06/09 02:27:40;;;;;;;24.30;7.80;;;;;;;13.30;88.43;99039.19;5009323;28;20064;-72
2022/06/09 02:30:07;;;;;;;18.15;6.72;;;;;;;13.32;88.77;99040.78;5009364;28;20505;-72
2022/06/09 02:32:34;;;;;;;21.17;6.60;;;;;;;13.31;87.86;99038.22;5009215;28;20121;-72
2022/06/09 02:35:00;;;;;;;19.75;7.40;;;;;;;13.30;87.59;99039.19;5008890;28;20038;-72
2022/06/09 02:37:25;;;;;;;20.83;6.47;;;;;;;13.32;87.77;99042.56;5008338;28;20041;-72
2022/06/09 02:39:50;;;;;;;20.45;5.90;;;;;;;13.32;87.16;99040.78;5009312;28;20030;-72
2022/06/09 02:42:16;;;;;;;16.35;7.07;;;;;;;13.30;86.16;99047.97;5009388;28;20042;-72
2022/06/09 02:44:41;;;;;;;19.63;6.60;;;;;;;13.30;86.70;99055.06;5009503;28;20034;-72
2022/06/09 02:47:06;;;;;;;18.88;5.20;;;;;;;13.32;86.69;99050.50;5008912;28;20065;-72
2022/06/09 02:49:32;;;;;;;14.20;5.30;;;;;;;13.32;86.25;99056.66;5008370;28;20089;-72
2022/06/09 02:51:57;;;;;;;21.65;5.97;;;;;;;13.31;85.88;99052.31;5005539;28;20033;-72
2022/06/09 02:54:23;;;;;;;17.65;5.90;;;;;;;13.30;86.79;99055.91;4989874;28;20460;-72
2022/06/09 02:56:48;;;;;;;17.48;6.65;;;;;;;13.24;86.31;99051.03;4971481;28;20034;-72
2022/06/09 02:59:14;;;;;;;18.65;5.85;;;;;;;13.26;87.27;99056.22;4989643;28;20039;-72
2022/06/09 03:01:40;;;;;;;23.00;7.38;;;;;;;13.21;86.82;99053.03;4972487;28;20038;-72
2022/06/09 03:04:06;;;;;;;19.05;6.70;;;;;;;13.23;86.94;99059.06;4989395;28;20042;-72
2022/06/09 03:06:32;;;;;;;23.88;8.32;;;;;;;13.25;86.87;99059.81;4988976;28;20073;-72
2022/06/09 03:08:58;;;;;;;22.13;7.07;;;;;;;13.25;86.99;99062.47;4989300;28;20532;-72
2022/06/09 03:11:24;;;;;;;20.77;7.32;;;;;;;13.25;86.43;99062.47;4993408;28;20066;-72
2022/06/09 03:13:49;;;;;;;16.58;6.10;;;;;;;13.24;86.52;99063.41;4993503;28;20030;-72
2022/06/09 03:16:16;;;;;;;20.02;6.80;;;;;;;13.26;87.00;99062.34;4992674;28;20038;-72
2022/06/09 03:18:42;;;;;;;31.35;8.27;;;;;;;13.26;86.83;99074.72;4993560;28;20038;-72
2022/06/09 03:21:08;;;;;;;15.95;7.15;;;;;;;13.26;86.61;99072.09;4993401;28;20113;-72
2022/06/09 03:23:34;;;;;;;17.83;6.20;;;;;;;13.26;86.72;99077.38;4993329;28;20135;-72
2022/06/09 03:25:59;;;;;;;16.88;6.85;;;;;;;13.29;86.85;99082.47;4992643;28;20394;-72
2022/06/09 03:28:25;;;;;;;20.95;6.70;;;;;;;13.28;86.66;99086.09;4992921;28;20034;-72
2022/06/09 03:30:50;;;;;;;21.08;8.73;;;;;;;13.27;85.97;99093.19;4993051;28;20034;-71
2022/06/09 03:33:15;;;;;;;13.93;6.35;;;;;;;13.29;86.21;99087.78;4993065;28;20085;-72
2022/06/09 03:35:41;;;;;;;14.32;5.90;;;;;;;13.27;86.89;99090.56;4995531;28;20041;-72
2022/06/09 03:38:06;;;;;;;21.75;7.30;;;;;;;13.26;86.23;99096.75;4992560;28;20125;-73
2022/06/09 03:40:32;;;;;;;14.07;6.22;;;;;;;13.29;87.07;99098.38;4992874;28;20042;-72
2022/06/09 03:42:59;;;;;;;14.90;6.65;;;;;;;13.29;86.65;99101.88;4992677;28;20417;-72
2022/06/09 03:45:24;;;;;;;17.38;6.72;;;;;;;13.31;86.30;99101.75;4993811;28;20046;-71
2022/06/09 03:47:50;;;;;;;21.23;8.68;;;;;;;13.32;86.31;99103.47;5011574;28;20041;-72
2022/06/09 03:50:23;;;;;;;22.65;8.30;;;;;;;13.33;86.86;99107.78;5011835;28;20033;-72
2022/06/09 03:52:48;;;;;;;18.90;7.68;;;;;;;13.35;86.94;99113.81;4994555;28;20042;-72
2022/06/09 03:55:15;;;;;;;25.92;7.78;;;;;;;13.37;86.72;99109.28;5011980;28;20069;-71
2022/06/09 03:57:40;;;;;;;17.80;7.97;;;;;;;13.35;86.02;99113.81;5011695;28;20095;-71
2022/06/09 04:00:09;;;;;;;16.60;6.30;;;;;;;13.35;86.27;99119.13;5012189;28;20473;-71
2022/06/09 04:02:34;;;;;;;22.55;8.23;;;;;;;13.36;86.78;99122.59;5011930;28;20394;-72
2022/06/09 04:05:01;;;;;;;21.85;9.00;;;;;;;13.37;87.21;99126.97;5011493;28;20030;-71
2022/06/09 04:07:27;;;;;;;19.65;8.48;;;;;;;13.40;86.74;99121.44;5011101;28;20037;-72
2022/06/09 04:09:52;;;;;;;19.63;8.02;;;;;;;13.39;86.73;99125.91;5011915;28;20133;-71
2022/06/09 04:12:18;;;;;;;19.45;7.68;;;;;;;13.42;87.04;99132.78;5012023;28;20419;-72
2022/06/09 04:14:43;;;;;;;15.60;7.30;;;;;;;13.42;86.95;99130.97;5012426;28;20042;-76
2022/06/09 04:17:11;;;;;;;13.35;7.30;;;;;;;13.45;86.61;99130.75;5011181;28;20033;-72
2022/06/09 04:19:37;;;;;;;19.20;7.57;;;;;;;13.48;86.70;99132.31;4993923;28;20038;-71
2022/06/09 04:22:03;;;;;;;17.58;9.05;;;;;;;13.49;86.84;99132.22;5011038;28;20140;-72
2022/06/09 04:24:28;;;;;;;15.93;6.50;;;;;;;13.52;86.38;99121.41;5011710;28;20042;-72
2022/06/09 04:26:54;;;;;;;12.85;8.27;;;;;;;13.56;87.21;99131.75;5010795;28;20045;-71
2022/06/09 04:29:19;;;;;;;25.90;7.85;;;;;;;13.54;86.42;99137.19;5011729;28;20034;-71
2022/06/09 04:31:45;;;;;;;13.68;6.88;;;;;;;13.56;86.33;99137.94;5011454;28;20184;-72
2022/06/09 04:34:10;;;;;;;16.90;9.10;;;;;;;13.58;85.71;99137.81;5011282;28;20044;-72
2022/06/09 04:36:36;;;;;;;18.20;8.55;;;;;;;13.57;85.78;99144.06;5010729;28;20045;-71
2022/06/09 04:39:04;;;;;;;17.15;8.15;;;;;;;13.57;85.85;99147.56;5011162;28;20140;-72
2022/06/09 04:41:29;;;;;;;19.90;8.32;;;;;;;13.58;85.77;99145.75;5012232;28;20117;-71
2022/06/09 04:43:57;;;;;;;18.45;8.05;;;;;;;13.60;85.34;99149.13;5011350;28;20126;-72
2022/06/09 04:46:23;;;;;;;23.67;9.10;;;;;;;13.56;85.45;99153.81;5010538;28;20113;-72
2022/06/09 04:48:48;;;;;;;19.33;8.10;;;;;;;13.59;85.61;99158.91;5011084;28;20065;-72
2022/06/09 04:51:16;;;;;;;23.63;9.90;;;;;;;13.61;85.58;99158.75;5011348;28;20061;-72
2022/06/09 04:53:42;;;;;;;15.35;7.68;;;;;;;13.60;85.01;99160.56;5011003;28;20049;-71
2022/06/09 04:56:09;;;;;;;16.80;8.20;;;;;;;13.63;85.09;99157.69;5010395;28;21622;-72
2022/06/09 04:58:34;;;;;;;24.63;8.63;;;;;;;13.67;84.77;99169.78;5011001;28;20030;-72
2022/06/09 05:01:00;;;;;;;18.65;7.65;;;;;;;13.72;84.97;99167.63;4997555;28;20053;-73
2022/06/09 05:03:25;;;;;;;17.63;8.65;;;;;;;13.72;84.13;99167.63;4975033;28;20138;-72
2022/06/09 05:05:51;;;;;;;23.50;9.30;;;;;;;13.75;84.35;99170.06;4992752;28;20101;-72
2022/06/09 05:08:18;;;;;;;16.55;8.48;;;;;;;13.84;84.44;99170.38;4993391;28;20039;-73
2022/06/09 05:10:45;;;;;;;18.35;8.15;;;;;;;13.88;83.89;99178.00;4993572;28;20030;-72
2022/06/09 05:13:12;;;;;;;17.02;7.82;;;;;;;13.91;83.76;99179.56;4993835;28;20398;-72
2022/06/09 05:15:47;;;;;;;21.83;8.70;;;;;;;13.94;83.14;99182.81;4992435;28;20035;-73
2022/06/09 05:18:12;;;;;;;20.87;9.30;;;;;;;13.96;84.01;99183.56;4991161;28;20148;-73
2022/06/09 05:20:40;;;;;;;21.38;7.90;;;;;;;14.00;83.34;99189.47;4973687;28;20133;-74
2022/06/09 05:23:06;;;;;;;24.60;9.25;;;;;;;14.05;83.90;99192.63;4991421;28;20036;-72
2022/06/09 05:25:31;;;;;;;24.52;9.07;;;;;;;14.10;83.74;99198.47;4990907;28;20117;-73
2022/06/09 05:27:56;;;;;;;24.25;8.48;;;;;;;14.13;83.34;99200.06;4989727;28;20044;-72
2022/06/09 05:30:24;;;;;;;22.88;8.52;;;;;;;14.11;82.07;99200.16;4990828;28;20045;-73
2022/06/09 05:32:49;;;;;;;21.58;8.57;;;;;;;14.09;82.15;99203.88;4990359;28;20065;-73
2022/06/09 05:35:15;;;;;;;17.92;8.85;;;;;;;14.11;82.95;99204.63;4990426;28;20049;-73
2022/06/09 05:45:55;;;;;;;19.50;8.77;;;;;;;14.28;81.10;99225.44;4999664;28;20110;-73
2022/06/09 05:48:21;;;;;;;24.10;8.75;;;;;;;14.31;81.02;99222.53;5010358;28;20038;-74
2022/06/09 05:50:47;;;;;;;15.98;7.88;;;;;;;14.34;80.84;99219.66;5009877;28;20037;-73
2022/06/09 05:53:12;;;;;;;15.95;7.25;;;;;;;14.37;80.85;99235.38;5009976;28;20520;-73
2022/06/09 05:55:37;;;;;;;17.35;7.43;;;;;;;14.42;80.80;99234.16;5009943;28;20026;-72
2022/06/09 05:58:03;;;;;;;22.88;7.82;;;;;;;14.47;80.40;99234.66;5009970;28;20073;-71
2022/06/09 06:00:28;;;;;;;18.38;9.02;;;;;;;14.47;79.64;99238.19;5009879;28;20049;-74
2022/06/09 06:02:53;;;;;;;17.58;7.65;;;;;;;14.53;79.67;99239.53;5010116;28;20084;-71
2022/06/09 06:08:02;;;;;;;21.58;7.57;;;;;;;14.62;79.19;99244.19;5008784;28;20040;-72
2022/06/09 06:10:28;;;;;;;19.77;7.70;;;;;;;14.65;79.29;99254.56;5010163;28;20105;-71
2022/06/09 06:12:53;;;;;;;19.63;7.65;;;;;;;14.60;78.54;99254.06;4992448;28;20083;-72
2022/06/09 06:15:19;;;;;;;20.05;7.10;;;;;;;14.61;78.85;99261.03;5009274;28;20038;-72
2022/06/09 06:17:44;;;;;;;23.55;7.95;;;;;;;14.64;78.93;99259.97;5008494;28;20437;-72
2022/06/09 06:20:10;;;;;;;22.25;7.07;;;;;;;14.63;78.32;99274.22;5009073;28;20030;-71
2022/06/09 06:22:35;;;;;;;19.10;8.70;;;;;;;14.63;78.47;99275.03;5009625;28;20041;-72
2022/06/09 06:25:02;;;;;;;17.75;7.05;;;;;;;14.64;78.26;99268.78;5009921;28;20113;-72
2022/06/09 06:27:28;;;;;;;20.90;7.05;;;;;;;14.64;78.27;99279.38;4991390;28;20030;-72
2022/06/09 06:29:54;;;;;;;17.15;6.97;;;;;;;14.62;78.06;99276.03;4991707;28;20038;-72
2022/06/09 06:32:19;;;;;;;21.48;8.00;;;;;;;14.65;78.58;99281.09;5008848;28;20045;-71
2022/06/09 06:34:44;;;;;;;20.83;7.70;;;;;;;14.66;77.82;99288.06;5008490;28;20112;-73
2022/06/09 06:37:10;;;;;;;18.33;7.78;;;;;;;14.68;78.08;99287.97;5008076;28;20133;-72
2022/06/09 06:39:35;;;;;;;15.95;7.05;;;;;;;14.71;77.80;99283.28;4992053;28;20052;-72
2022/06/09 06:42:00;;;;;;;24.45;7.65;;;;;;;14.74;77.91;99285.72;5009765;28;20053;-72
2022/06/09 06:44:26;;;;;;;17.38;7.32;;;;;;;14.79;77.21;99285.34;5008336;28;20162;-72
2022/06/09 06:46:51;;;;;;;15.82;7.78;;;;;;;14.75;77.08;99291.88;4990584;28;20080;-72
2022/06/09 06:49:16;;;;;;;13.68;6.55;;;;;;;14.74;77.11;99301.66;5008832;28;20390;-72
2022/06/09 06:51:42;;;;;;;22.85;8.82;;;;;;;14.76;76.34;99299.69;5008825;28;20482;-72
2022/06/09 06:54:08;;;;;;;29.08;8.02;;;;;;;14.77;76.83;99303.22;4980685;28;20030;-72
2022/06/09 06:56:35;;;;;;;20.80;6.90;;;;;;;14.87;77.28;99306.88;4989420;28;20057;-72
2022/06/09 06:59:01;;;;;;;17.42;7.65;;;;;;;14.94;77.23;99302.81;4989562;28;20031;-72
2022/06/09 07:01:26;;;;;;;16.38;6.20;;;;;;;14.92;75.71;99315.34;4989797;28;20467;-73
2022/06/09 07:03:54;;;;;;;13.43;7.85;;;;;;;14.81;75.72;99312.63;4989572;28;20110;-73
2022/06/09 07:06:19;;;;;;;18.80;8.02;;;;;;;14.83;75.92;99318.66;4988783;28;20058;-73
2022/06/09 07:08:45;;;;;;;15.65;7.47;;;;;;;14.86;76.33;99325.56;4989564;28;20057;-72
2022/06/09 07:11:12;;;;;;;16.20;6.97;;;;;;;14.91;76.13;99326.91;4971994;28;20401;-72
2022/06/09 07:13:37;;;;;;;17.00;8.25;;;;;;;15.00;76.11;99325.38;4972009;28;20084;-72
2022/06/09 07:16:04;;;;;;;13.98;6.13;;;;;;;15.08;75.80;99333.59;4989593;28;20490;-71
2022/06/09 07:18:30;;;;;;;11.60;6.28;;;;;;;15.11;75.04;99338.72;4972155;28;20657;-72
2022/06/09 07:20:57;;;;;;;10.60;6.30;;;;;;;15.17;74.53;99335.56;4989372;28;20031;-72
2022/06/09 07:23:23;;;;;;;22.65;8.52;;;;;;;15.20;74.72;99345.13;4989658;28;20117;-71
2022/06/09 07:25:48;;;;;;;18.40;8.15;;;;;;;15.28;74.99;99344.53;4989088;28;20027;-71
2022/06/09 07:28:14;;;;;;;15.68;7.93;;;;;;;15.27;74.51;99343.69;4989604;28;20542;-72
2022/06/09 07:30:40;;;;;;;23.90;9.25;;;;;;;15.23;74.63;99355.50;4990052;28;20038;-72
2022/06/09 07:33:06;;;;;;;23.00;7.25;;;;;;;15.22;74.97;99352.00;4991502;28;20034;-71
2022/06/09 07:35:34;;;;;;;20.77;8.43;;;;;;;15.26;74.56;99349.97;4975504;28;20092;-72
2022/06/09 07:38:00;;;;;;;19.92;7.40;;;;;;;15.35;74.55;99359.03;4991794;28;20046;-71
2022/06/09 07:40:26;;;;;;;23.98;7.10;;;;;;;15.40;74.19;99356.88;4990836;28;20034;-71
2022/06/09 07:42:51;;;;;;;15.10;6.65;;;;;;;15.42;74.26;99362.94;4989944;28;20104;-71
2022/06/09 07:45:18;;;;;;;21.48;7.53;;;;;;;15.38;74.39;99357.03;4989587;28;20031;-72
2022/06/09 07:47:44;;;;;;;16.20;7.20;;;;;;;15.41;74.48;99364.75;4989768;28;20041;-72
2022/06/09 07:50:10;;;;;;;45.85;13.18;;;;;;;15.50;75.65;99376.47;4990151;28;20034;-72
2022/06/09 07:52:36;;;;;;;23.90;7.53;;;;;;;15.55;74.30;99368.16;5007919;28;20044;-72
2022/06/09 07:55:02;;;;;;;16.10;7.25;;;;;;;15.57;73.94;99372.38;5008317;28;20030;-71
2022/06/09 07:57:28;;;;;;;16.58;8.25;;;;;;;15.63;73.72;99376.41;4994224;28;20069;-72
2022/06/09 07:59:53;;;;;;;14.10;7.70;;;;;;;15.65;73.99;99375.31;5011739;28;20034;-72
2022/06/09 08:02:18;;;;;;;26.15;6.80;;;;;;;15.65;71.96;99385.06;5011794;28;20042;-72
2022/06/09 08:04:44;;;;;;;13.75;7.45;;;;;;;15.62;72.14;99380.84;4994217;28;20034;-72
2022/06/09 08:07:09;;;;;;;15.38;7.75;;;;;;;15.57;71.98;99382.16;5010947;28;20056;-72
2022/06/09 08:09:35;;;;;;;10.77;5.68;;;;;;;15.61;72.36;99391.59;4995047;28;20049;-72
2022/06/09 08:12:00;;;;;;;26.20;7.53;;;;;;;15.62;72.28;99394.13;5012336;28;20042;-72
2022/06/09 08:14:26;;;;;;;25.20;6.63;;;;;;;15.59;71.89;99391.72;5012285;28;20037;-72
2022/06/09 08:16:51;;;;;;;11.38;6.00;;;;;;;15.60;71.50;99398.75;5011090;28;20037;-72
2022/06/09 08:19:17;;;;;;;21.48;5.90;;;;;;;15.62;71.08;99399.44;5011789;28;20040;-72
2022/06/09 08:21:42;;;;;;;17.55;6.93;;;;;;;15.64;71.34;99407.31;5011749;28;20402;-72
2022/06/09 08:24:09;;;;;;;32.70;7.93;;;;;;;15.92;70.86;99408.72;5011938;28;20513;-72
2022/06/09 08:26:34;;;;;;;65.95;15.43;;;;;;;16.02;70.66;99407.06;5011284;28;20030;-72
2022/06/09 08:29:01;;;;;;;18.80;7.50;;;;;;;16.15;70.29;99404.28;5011424;28;20038;-72
2022/06/09 08:31:26;;;;;;;18.58;6.53;;;;;;;16.11;69.56;99413.47;5011340;28;20042;-72
2022/06/09 08:33:52;;;;;;;14.15;6.68;;;;;;;16.03;69.98;99424.69;5011828;28;20036;-72
2022/06/09 08:36:17;;;;;;;15.07;6.25;;;;;;;16.02;70.62;99433.66;5010765;28;20038;-72
2022/06/09 08:38:43;;;;;;;20.05;7.10;;;;;;;16.06;70.99;99437.75;5011240;28;20462;-72
2022/06/09 08:41:35;;;;;;;19.80;7.60;;;;;;;16.10;70.64;99444.53;5012089;28;20041;-72
2022/06/09 08:44:19;;;;;;;16.73;6.53;;;;;;;16.09;71.04;99453.44;5010524;28;20069;-72
2022/06/09 08:47:05;;;;;;;20.67;6.43;;;;;;;16.14;70.37;99445.13;5010760;28;20109;-72
2022/06/09 08:49:39;;;;;;;;;;;;;;;16.08;69.85;99449.13;5011652;28;20496;-72
2022/06/09 08:52:15;;;;;;;25.98;7.80;;;;;;;16.05;70.33;99451.19;4993447;28;19929;-72
2022/06/09 08:54:41;;;;;;;21.00;7.32;;;;;;;16.21;71.86;99450.81;4993157;28;20065;-72
2022/06/09 08:57:22;;;;;;;19.88;6.88;;;;;;;16.40;71.19;99443.09;5010287;28;20030;-72
2022/06/09 08:59:56;;;;;;;15.02;6.05;;;;;;;16.50;70.19;99449.38;5009884;28;20030;-72
2022/06/09 09:02:31;;;;;;;22.17;6.55;;;;;;;16.54;70.15;99455.31;5011205;28;20054;-72
2022/06/09 09:05:07;;;;;;;;;;;;;;;16.58;69.00;99455.91;5011315;28;20113;-73
2022/06/09 09:07:43;;;;;;;17.70;6.70;;;;;;;16.70;68.29;99461.09;5010192;28;19982;-72
2022/06/09 09:10:22;;;;;;;17.15;6.72;;;;;;;16.73;67.54;99454.69;5011310;28;20272;-72
2022/06/09 09:12:53;;;;;;;23.13;6.50;;;;;;;17.08;67.10;99459.88;5010870;28;20083;-72
2022/06/09 09:15:31;;;;;;;20.52;6.53;;;;;;;17.36;66.57;99457.59;5010873;28;20042;-72
2022/06/09 09:18:28;;;;;;;14.43;6.32;;;;;;;17.75;64.65;99455.25;5010576;28;20026;-72
2022/06/09 09:21:12;;;;;;;20.35;7.28;;;;;;;18.02;64.08;99470.75;5011750;28;20038;-72
2022/06/09 09:24:06;;;;;;;17.02;5.40;;;;;;;17.94;62.07;99457.19;5010487;28;20034;-72
2022/06/09 09:26:57;;;;;;;11.05;5.25;;;;;;;18.93;58.62;99462.91;5009547;28;20034;-72
2022/06/09 09:29:33;;;;;;;27.58;6.13;;;;;;;19.90;55.29;99468.31;5010637;28;20575;-72
2022/06/09 09:32:03;;;;;;;13.90;5.20;;;;;;;20.02;54.30;99474.34;5010568;28;20068;-72
2022/06/09 09:34:38;;;;;;;15.55;5.65;;;;;;;21.24;52.01;99477.81;5010935;28;20034;-72
2022/06/09 09:37:32;;;;;;;20.67;6.13;;;;;;;21.62;49.70;99479.38;5009806;28;20040;-72
2022/06/09 09:40:06;;;;;;;10.23;5.60;;;;;;;22.24;47.58;99473.16;5009961;28;20037;-70
2022/06/09 09:42:36;;;;;;;13.88;6.18;;;;;;;22.61;47.20;99480.09;5010452;28;20041;-71
2022/06/09 09:45:04;;;;;;;17.85;6.15;;;;;;;22.71;47.31;99492.41;5010226;28;20132;-71
2022/06/09 09:47:31;;;;;;;13.25;4.95;;;;;;;22.00;47.42;99487.22;5009848;28;20041;-71
2022/06/09 09:50:06;;;;;;;12.02;5.30;;;;;;;21.72;47.82;99497.25;5010562;28;20037;-70
2022/06/09 09:52:37;;;;;;;9.80;5.13;;;;;;;21.92;48.65;99495.22;5012877;28;20042;-72
2022/06/09 09:55:21;;;;;;;10.10;4.00;;;;;;;21.80;48.62;99495.47;5014560;28;20751;-73
2022/06/09 09:57:46;;;;;;;14.32;4.93;;;;;;;21.17;50.02;99499.03;5012312;28;20120;-73
2022/06/09 10:00:25;;;;;;;12.30;5.13;;;;;;;20.86;51.19;99489.59;4996365;28;20054;-71
2022/06/09 10:08:38;;;;;;;15.20;4.38;;;;;;;20.11;52.20;99508.28;4990409;28;20046;-72
2022/06/09 10:14:01;;;;;;;16.23;5.47;;;;;;;19.27;54.99;99514.13;4990240;28;20041;-72
2022/06/09 10:16:30;;;;;;;14.00;4.82;;;;;;;18.99;56.32;99519.28;4989018;28;20040;-72
2022/06/09 10:19:02;;;;;;;10.80;5.07;;;;;;;18.94;56.32;99518.84;4989287;28;20034;-72
2022/06/09 10:21:48;;;;;;;14.50;6.05;;;;;;;19.52;55.46;99526.16;4989970;28;20473;-72
2022/06/09 10:24:18;;;;;;;17.42;6.10;;;;;;;21.13;51.76;99521.75;4989558;28;20105;-73
2022/06/09 10:26:48;;;;;;;12.90;4.90;;;;;;;22.27;48.50;99526.56;4989279;28;20462;-72
2022/06/09 10:29:37;;;;;;;30.00;6.22;;;;;;;22.36;47.86;99519.41;4989940;28;20046;-72
2022/06/09 10:32:05;;;;;;;16.73;5.18;;;;;;;22.40;47.35;99529.69;4964410;28;20494;-72
2022/06/09 10:34:48;;;;;;;13.15;5.75;;;;;;;21.68;48.07;99533.41;4972246;28;20485;-72
2022/06/09 10:37:34;;;;;;;10.18;4.88;;;;;;;21.63;48.40;99532.06;4988688;28;20042;-73
2022/06/09 10:40:28;;;;;;;9.60;4.40;;;;;;;22.72;46.71;99534.41;4989621;28;20046;-72
2022/06/09 10:43:03;;;;;;;10.88;4.70;;;;;;;22.85;45.81;99525.91;4989471;28;20125;-72
2022/06/09 10:45:53;;;;;;;11.23;4.90;;;;;;;22.91;44.47;99533.34;4989780;28;20034;-72
2022/06/09 10:57:24;;;;;;;15.25;5.05;;;;;;;21.61;47.85;99533.22;4988881;28;20053;-72
2022/06/09 11:00:14;;;;;;;15.65;5.40;;;;;;;21.89;47.59;99539.31;4989623;28;20034;-73
2022/06/09 11:02:46;;;;;;;9.48;4.43;;;;;;;21.78;47.45;99544.91;4990128;28;20113;-72
2022/06/09 11:05:18;;;;;;;11.43;4.15;;;;;;;21.76;47.53;99541.56;4990009;28;20038;-72
2022/06/09 11:08:13;;;;;;;14.48;5.10;;;;;;;21.38;47.50;99546.16;4989924;28;20034;-72
2022/06/09 11:10:59;;;;;;;17.70;7.18;;;;;;;21.30;48.66;99546.91;4989497;28;20038;-72
2022/06/09 11:13:48;;;;;;;15.45;4.97;;;;;;;21.17;47.79;99541.06;4989451;28;20060;-72
2022/06/09 11:16:22;;;;;;;16.75;5.50;;;;;;;21.11;48.81;99547.84;4988103;28;20746;-72
2022/06/09 11:19:18;;;;;;;19.38;4.93;;;;;;;21.21;48.79;99548.66;4989427;28;20030;-72
2022/06/09 11:22:27;;;;;;;14.27;4.95;;;;;;;21.03;48.62;99545.09;4989200;28;20513;-73
2022/06/09 11:25:09;;;;;;;15.07;4.90;;;;;;;21.00;48.65;99554.28;4989138;28;20043;-72
2022/06/09 11:27:46;;;;;;;15.20;6.15;;;;;;;21.25;48.60;99546.53;4988916;28;20034;-72
2022/06/09 11:30:18;;;;;;;16.52;4.85;;;;;;;21.33;49.44;99543.09;4989734;28;20030;-72
2022/06/09 11:33:13;;;;;;;12.95;4.10;;;;;;;21.25;48.53;99545.69;4993117;28;20066;-72
2022/06/09 11:36:09;;;;;;;19.17;5.15;;;;;;;21.22;47.95;99546.84;4993889;28;20026;-72
2022/06/09 11:38:49;;;;;;;12.55;5.13;;;;;;;21.13;48.80;99548.56;4992439;28;20038;-73
2022/06/09 11:42:00;;;;;;;6.93;3.95;;;;;;;21.08;49.24;99553.53;4992066;28;20491;-72
2022/06/09 11:44:27;;;;;;;14.85;5.13;;;;;;;21.13;48.22;99561.13;5007897;28;20042;-73
2022/06/09 11:46:57;;;;;;;7.60;3.60;;;;;;;21.28;48.29;99556.94;5012121;28;20042;-72
2022/06/09 11:49:33;;;;;;;18.40;5.20;;;;;;;21.50;48.83;99560.25;5012130;28;20119;-72
2022/06/09 11:52:03;;;;;;;9.10;4.13;;;;;;;21.57;47.79;99556.78;5012438;28;20037;-72
2022/06/09 11:54:40;;;;;;;9.85;4.82;;;;;;;21.58;48.00;99558.47;5011951;28;20040;-73
2022/06/09 11:57:18;;;;;;;10.95;4.35;;;;;;;21.72;47.61;99557.13;5011745;28;20041;-72
2022/06/09 12:00:21;;;;;;;11.10;3.90;;;;;;;21.82;46.99;99568.63;5012123;28;20493;-72
2022/06/09 12:03:08;;;;;;;11.57;4.32;;;;;;;21.86;47.42;99563.81;5011692;28;20308;-73
2022/06/09 12:05:38;;;;;;;10.05;4.20;;;;;;;21.91;47.47;99574.91;4993105;28;20053;-73
2022/06/09 12:08:31;;;;;;;9.77;3.53;;;;;;;21.80;46.90;99572.44;4992329;28;20240;-72
2022/06/09 12:11:14;;;;;;;12.82;3.83;;;;;;;21.81;46.18;99582.19;4992867;28;20039;-72